Terminal Aerodrome Forecast
Issued by NWS Wakefield, VA

Home | Current Version | Previous Version | Text Only | Print | Product List | Glossary On
Versions: 1 2 3 4 5 6 7 8 9 10 11 12 13 14 15
000
FTUS41 KAKQ 261140
TAFSBY
TAF
KSBY 261140Z 2612/2712 36004KT P6SM -RA SCT015 OVC080
      TEMPO 2612/2613 4SM -RA BR
     FM261500 02008KT P6SM OVC050
     FM262000 01008KT P6SM BKN100
     FM262300 02002KT P6SM SCT250=

USA.gov is the U.S. government's official web portal to all federal, state and local government web resources and services.